createdAt,value
2017-07-09T00:00:50.032Z,20.53
2017-07-09T00:03:18.409Z,21.87
2017-07-09T00:05:45.846Z,22.13
2017-07-09T00:08:13.302Z,21.93
2017-07-09T00:10:40.742Z,24.20
2017-07-09T00:13:08.179Z,23.23
2017-07-09T00:15:35.617Z,18.83
2017-07-09T00:18:03.069Z,21.43
2017-07-09T00:20:30.507Z,21.60
2017-07-09T00:22:57.942Z,21.40
2017-07-09T00:25:25.390Z,20.03
2017-07-09T00:27:52.822Z,20.47
2017-07-09T00:30:20.275Z,21.63
2017-07-09T00:32:47.712Z,21.30
2017-07-09T00:35:15.151Z,20.87
2017-07-09T00:37:42.598Z,20.23
2017-07-09T00:40:10.038Z,23.10
2017-07-09T00:42:37.486Z,20.63
2017-07-09T00:45:04.921Z,22.57
2017-07-09T00:47:32.377Z,21.83
2017-07-09T00:49:59.818Z,24.53
2017-07-09T00:52:27.257Z,21.60
2017-07-09T00:54:54.706Z,23.00
2017-07-09T00:57:22.143Z,20.77
2017-07-09T00:59:49.594Z,22.77
2017-07-09T01:02:17.033Z,21.03
2017-07-09T01:04:44.474Z,21.13
2017-07-09T01:07:11.913Z,21.60
2017-07-09T01:09:39.368Z,18.47
2017-07-09T01:12:06.835Z,21.23
2017-07-09T01:14:34.263Z,20.20
2017-07-09T01:17:01.705Z,19.27
2017-07-09T01:19:29.150Z,20.50
2017-07-09T01:21:57.365Z,18.30
2017-07-09T01:24:24.815Z,19.93
2017-07-09T01:26:52.257Z,22.30
2017-07-09T01:29:19.696Z,19.40
2017-07-09T01:31:47.150Z,19.67
2017-07-09T01:34:14.586Z,19.10
2017-07-09T01:36:42.035Z,20.50
2017-07-09T01:39:09.486Z,18.20
2017-07-09T01:41:36.931Z,20.43
2017-07-09T01:44:04.374Z,19.87
2017-07-09T01:46:31.829Z,19.40
2017-07-09T01:48:59.262Z,19.70
2017-07-09T01:51:26.699Z,19.70
2017-07-09T01:53:54.901Z,19.23
2017-07-09T01:56:22.356Z,19.00
2017-07-09T01:58:49.793Z,17.13
2017-07-09T02:01:17.253Z,16.10
2017-07-09T02:03:44.690Z,19.40
2017-07-09T02:06:12.141Z,17.73
2017-07-09T02:08:39.573Z,17.13
2017-07-09T02:11:07.014Z,16.33
2017-07-09T02:13:34.459Z,15.13
2017-07-09T02:16:01.901Z,16.43
2017-07-09T02:18:29.350Z,17.07
2017-07-09T02:20:56.789Z,18.43
2017-07-09T02:23:24.246Z,15.60
2017-07-09T02:25:52.453Z,14.53
2017-07-09T02:28:19.893Z,13.20
2017-07-09T02:30:47.341Z,16.13
2017-07-09T02:33:14.781Z,14.30
2017-07-09T02:35:42.226Z,18.90
2017-07-09T02:38:09.665Z,16.50
2017-07-09T02:40:37.104Z,17.03
2017-07-09T02:43:04.547Z,17.40
2017-07-09T02:45:32.005Z,17.23
2017-07-09T02:47:59.447Z,16.63
2017-07-09T02:50:26.885Z,18.60
2017-07-09T02:52:54.331Z,16.40
2017-07-09T02:55:21.766Z,12.80
2017-07-09T02:57:49.213Z,14.60
2017-07-09T03:00:16.654Z,17.03
2017-07-09T03:02:44.106Z,17.20
2017-07-09T03:05:11.551Z,14.77
2017-07-09T03:07:38.985Z,13.87
2017-07-09T03:10:06.430Z,16.00
2017-07-09T03:12:33.877Z,14.73
2017-07-09T03:15:01.318Z,15.70
2017-07-09T03:17:28.768Z,14.23
2017-07-09T03:19:56.201Z,14.80
2017-07-09T03:22:23.691Z,12.33
2017-07-09T03:24:51.133Z,14.67
2017-07-09T03:27:18.579Z,12.30
2017-07-09T03:29:46.031Z,13.13
2017-07-09T03:32:13.465Z,11.60
2017-07-09T03:34:40.923Z,12.00
2017-07-09T03:37:08.386Z,13.60
2017-07-09T03:39:35.826Z,12.50
2017-07-09T03:42:03.267Z,15.00
2017-07-09T03:44:30.705Z,12.40
2017-07-09T03:46:58.158Z,15.97
2017-07-09T03:49:26.361Z,14.40
2017-07-09T03:51:53.810Z,14.93
2017-07-09T03:54:21.246Z,13.87
2017-07-09T03:56:48.686Z,13.70
2017-07-09T03:59:16.133Z,14.20
2017-07-09T04:01:43.578Z,12.70
2017-07-09T04:04:11.023Z,12.43
2017-07-09T04:06:38.457Z,13.30
2017-07-09T04:09:05.897Z,13.80
2017-07-09T04:11:33.356Z,13.13
2017-07-09T04:14:00.821Z,15.30
2017-07-09T04:16:28.249Z,14.13
2017-07-09T04:18:55.685Z,12.53
2017-07-09T04:21:23.130Z,14.03
2017-07-09T04:23:50.574Z,12.40
2017-07-09T04:26:18.023Z,13.30
2017-07-09T04:28:45.462Z,13.13
2017-07-09T04:31:12.905Z,13.20
2017-07-09T04:33:40.352Z,13.90
2017-07-09T04:36:07.804Z,11.63
2017-07-09T04:38:35.240Z,13.07
2017-07-09T04:41:02.677Z,13.73
2017-07-09T04:43:30.890Z,13.70
2017-07-09T04:45:58.326Z,14.43
2017-07-09T04:48:25.774Z,11.70
2017-07-09T04:50:53.210Z,14.47
2017-07-09T04:53:20.666Z,14.10
2017-07-09T04:55:48.106Z,13.10
2017-07-09T04:58:15.554Z,14.33
2017-07-09T05:00:42.991Z,13.17
2017-07-09T05:03:10.432Z,14.80
2017-07-09T05:05:37.877Z,14.70
2017-07-09T05:08:05.319Z,13.33
2017-07-09T05:10:32.766Z,14.70
2017-07-09T05:13:00.204Z,14.73
2017-07-09T05:15:27.645Z,13.33
2017-07-09T05:17:55.090Z,12.37
2017-07-09T05:20:22.547Z,13.40
2017-07-09T05:22:49.982Z,11.40
2017-07-09T05:25:17.425Z,12.63
2017-07-09T05:27:44.874Z,15.03
2017-07-09T05:30:12.314Z,14.47
2017-07-09T05:32:40.525Z,11.83
2017-07-09T05:35:07.969Z,13.23
2017-07-09T05:37:35.422Z,13.53
2017-07-09T05:40:02.852Z,12.47
2017-07-09T05:42:30.307Z,15.43
2017-07-09T05:44:57.743Z,16.10
2017-07-09T05:47:25.176Z,16.23
2017-07-09T05:49:52.622Z,15.60
2017-07-09T05:52:20.061Z,16.87
2017-07-09T05:54:47.507Z,16.33
2017-07-09T05:57:14.955Z,16.03
2017-07-09T05:59:42.401Z,11.93
2017-07-09T06:02:09.851Z,12.77
2017-07-09T06:04:37.297Z,17.63
2017-07-09T06:07:04.729Z,20.10
2017-07-09T06:09:32.170Z,16.73
2017-07-09T06:11:59.610Z,18.00
2017-07-09T06:14:27.053Z,19.33
2017-07-09T06:16:54.493Z,16.83
2017-07-09T06:19:21.946Z,18.47
2017-07-09T06:21:49.395Z,18.93
2017-07-09T06:24:17.602Z,19.33
2017-07-09T06:26:45.042Z,19.00
2017-07-09T06:29:12.485Z,18.73
2017-07-09T06:31:39.926Z,17.60
2017-07-09T06:34:07.369Z,18.43
2017-07-09T06:36:34.810Z,18.47
2017-07-09T06:39:02.258Z,20.33
2017-07-09T06:41:29.694Z,24.13
2017-07-09T06:43:57.134Z,20.53
2017-07-09T06:46:24.587Z,23.17
2017-07-09T06:48:52.019Z,21.50
2017-07-09T06:51:19.461Z,20.23
2017-07-09T06:53:46.901Z,20.57
2017-07-09T06:56:14.348Z,26.07
2017-07-09T06:58:41.782Z,22.07
2017-07-09T07:01:09.229Z,21.03
2017-07-09T07:03:36.668Z,20.70
2017-07-09T07:06:04.093Z,23.80
2017-07-09T07:08:31.536Z,21.80
2017-07-09T07:10:58.961Z,22.80
2017-07-09T07:13:26.408Z,25.00
2017-07-09T07:15:53.842Z,25.23
2017-07-09T07:18:21.286Z,22.40
2017-07-09T07:20:48.721Z,20.80
2017-07-09T07:23:16.177Z,18.53
2017-07-09T07:25:43.613Z,25.00
2017-07-09T07:28:11.051Z,24.63
2017-07-09T07:30:38.484Z,27.33
2017-07-09T07:33:05.921Z,25.40
2017-07-09T07:35:33.369Z,24.63
2017-07-09T07:38:00.805Z,28.50
2017-07-09T07:40:28.247Z,31.57
2017-07-09T07:42:55.685Z,27.37
2017-07-09T07:45:23.121Z,29.30
2017-07-09T07:47:50.561Z,27.30
2017-07-09T07:50:17.993Z,28.10
2017-07-09T07:52:46.198Z,26.53
2017-07-09T07:55:13.631Z,28.73
2017-07-09T07:57:41.073Z,29.10
2017-07-09T08:00:08.525Z,30.20
2017-07-09T08:02:35.962Z,30.00
2017-07-09T08:05:03.397Z,26.40
2017-07-09T08:07:30.851Z,24.53
2017-07-09T08:09:58.286Z,25.30
2017-07-09T08:12:25.720Z,30.00
2017-07-09T08:14:53.161Z,28.60
2017-07-09T08:17:20.592Z,28.63
2017-07-09T08:19:48.045Z,28.40
2017-07-09T08:22:15.476Z,31.10
2017-07-09T08:24:42.917Z,32.83
2017-07-09T08:27:10.352Z,33.73
2017-07-09T08:29:37.785Z,34.37
2017-07-09T08:32:05.234Z,28.23
2017-07-09T08:34:32.669Z,31.13
2017-07-09T08:37:00.113Z,32.10
2017-07-09T08:39:27.545Z,32.00
2017-07-09T08:41:54.982Z,28.20
2017-07-09T08:44:22.422Z,31.13
2017-07-09T08:46:49.859Z,29.60
2017-07-09T08:49:17.306Z,29.70
2017-07-09T08:51:44.738Z,31.87
2017-07-09T08:54:12.966Z,32.60
2017-07-09T08:56:40.389Z,27.00
2017-07-09T08:59:07.823Z,27.87
2017-07-09T09:01:35.262Z,27.43
2017-07-09T09:04:02.702Z,26.90
2017-07-09T09:06:30.144Z,31.33
2017-07-09T09:08:57.580Z,29.90
2017-07-09T09:11:25.014Z,30.90
2017-07-09T09:13:52.462Z,30.20
2017-07-09T09:16:19.898Z,34.37
2017-07-09T09:18:47.343Z,32.30
2017-07-09T09:21:14.787Z,30.57
2017-07-09T09:23:42.226Z,30.77
2017-07-09T09:26:09.830Z,28.30
2017-07-09T09:28:37.278Z,25.77
2017-07-09T09:31:04.716Z,26.40
2017-07-09T09:33:32.150Z,27.80
2017-07-09T09:36:00.358Z,27.23
2017-07-09T09:38:27.794Z,28.40
2017-07-09T09:40:55.221Z,28.43
2017-07-09T09:43:22.674Z,27.00
2017-07-09T09:45:50.105Z,29.17
2017-07-09T09:48:17.550Z,28.90
2017-07-09T09:50:44.994Z,26.67
2017-07-09T09:53:12.453Z,27.80
2017-07-09T09:55:39.890Z,27.40
2017-07-09T09:58:07.330Z,28.43
2017-07-09T10:00:34.769Z,25.60
2017-07-09T10:03:02.208Z,26.37
2017-07-09T10:05:29.704Z,27.60
2017-07-09T10:07:57.086Z,29.60
2017-07-09T10:10:24.537Z,29.80
2017-07-09T10:12:51.981Z,23.60
2017-07-09T10:15:19.426Z,25.50
2017-07-09T10:17:46.866Z,24.90
2017-07-09T10:20:14.314Z,26.80
2017-07-09T10:22:41.754Z,27.37
2017-07-09T10:25:09.192Z,28.60
2017-07-09T10:27:36.648Z,25.63
2017-07-09T10:30:04.087Z,27.03
2017-07-09T10:32:31.518Z,30.17
2017-07-09T10:34:58.954Z,30.40
2017-07-09T10:37:26.389Z,27.67
2017-07-09T10:39:53.829Z,27.50
2017-07-09T10:42:21.267Z,24.57
2017-07-09T10:44:49.005Z,26.47
2017-07-09T10:47:16.438Z,26.27
2017-07-09T10:49:43.895Z,28.43
2017-07-09T10:52:11.333Z,29.00
2017-07-09T10:54:38.764Z,29.53
2017-07-09T10:57:06.219Z,29.60
2017-07-09T10:59:33.663Z,29.00
2017-07-09T11:02:01.103Z,24.27
2017-07-09T11:04:28.531Z,24.03
2017-07-09T11:06:55.983Z,25.13
2017-07-09T11:09:23.422Z,27.27
2017-07-09T11:11:50.877Z,27.27
2017-07-09T11:14:18.310Z,25.00
2017-07-09T11:16:45.746Z,24.00
2017-07-09T11:19:13.186Z,23.17
2017-07-09T11:21:40.627Z,23.30
2017-07-09T11:24:08.065Z,23.23
2017-07-09T11:26:35.502Z,24.10
2017-07-09T11:29:02.945Z,24.50
2017-07-09T11:31:30.377Z,25.07
2017-07-09T11:33:57.817Z,26.40
2017-07-09T11:36:25.253Z,24.43
2017-07-09T11:38:52.697Z,22.37
2017-07-09T11:41:20.142Z,25.50
2017-07-09T11:43:47.569Z,27.33
2017-07-09T11:46:15.013Z,23.00
2017-07-09T11:48:42.447Z,20.33
2017-07-09T11:51:09.890Z,20.40
2017-07-09T11:53:37.326Z,18.67
2017-07-09T11:56:04.770Z,18.73
2017-07-09T11:58:32.201Z,20.17
2017-07-09T12:00:59.647Z,22.10
2017-07-09T12:03:27.087Z,22.33
2017-07-09T12:05:54.522Z,21.83
2017-07-09T12:08:21.961Z,22.23
2017-07-09T12:10:49.409Z,17.43
2017-07-09T12:13:16.855Z,18.63
2017-07-09T12:15:44.291Z,19.60
2017-07-09T12:18:11.746Z,18.23
2017-07-09T12:20:39.186Z,20.50
2017-07-09T12:23:06.612Z,19.00
2017-07-09T12:25:34.053Z,17.23
2017-07-09T12:28:01.524Z,17.60
2017-07-09T12:30:28.970Z,17.87
2017-07-09T12:32:56.405Z,15.47
2017-07-09T12:35:23.849Z,16.50
2017-07-09T12:37:51.284Z,15.23
2017-07-09T12:40:18.730Z,15.67
2017-07-09T12:42:46.166Z,16.63
2017-07-09T12:45:13.607Z,15.70
2017-07-09T12:47:41.045Z,16.50
2017-07-09T12:50:08.496Z,15.33
2017-07-09T12:52:35.940Z,15.53
2017-07-09T12:55:03.378Z,15.70
2017-07-09T12:57:30.813Z,14.97
2017-07-09T12:59:58.252Z,14.53
2017-07-09T13:02:25.704Z,14.27
2017-07-09T13:04:53.133Z,11.50
2017-07-09T13:07:20.570Z,13.10
2017-07-09T13:09:48.010Z,12.90
2017-07-09T13:12:15.450Z,12.43
2017-07-09T13:14:42.889Z,12.70
2017-07-09T13:17:10.312Z,13.90
2017-07-09T13:19:37.748Z,13.13
2017-07-09T13:22:05.182Z,14.17
2017-07-09T13:24:32.641Z,13.90
2017-07-09T13:27:00.064Z,12.67
2017-07-09T13:29:27.501Z,13.83
2017-07-09T13:31:54.937Z,14.43
2017-07-09T13:34:22.394Z,14.63
2017-07-09T13:36:49.824Z,15.60
2017-07-09T13:39:17.257Z,15.07
2017-07-09T13:41:44.704Z,13.17
2017-07-09T13:44:12.139Z,14.30
2017-07-09T13:46:40.349Z,14.63
2017-07-09T13:49:07.785Z,16.13
2017-07-09T13:51:35.231Z,14.10
2017-07-09T13:54:02.673Z,15.50
2017-07-09T13:56:30.114Z,13.37
2017-07-09T13:58:57.555Z,13.87
2017-07-09T14:01:24.984Z,15.70
2017-07-09T14:03:52.417Z,15.20
2017-07-09T14:06:19.858Z,14.50
2017-07-09T14:08:47.314Z,15.23
2017-07-09T14:11:14.741Z,15.57
2017-07-09T14:13:42.186Z,14.63
2017-07-09T14:16:09.622Z,15.50
2017-07-09T14:18:37.070Z,15.87
2017-07-09T14:21:04.514Z,15.57
2017-07-09T14:23:31.953Z,14.63
2017-07-09T14:25:59.387Z,14.13
2017-07-09T14:28:26.841Z,15.53
2017-07-09T14:30:54.273Z,16.37
2017-07-09T14:33:21.706Z,16.10
2017-07-09T14:35:49.945Z,13.90
2017-07-09T14:38:17.385Z,16.13
2017-07-09T14:40:44.830Z,17.80
2017-07-09T14:43:12.272Z,16.97
2017-07-09T14:45:39.711Z,17.70
2017-07-09T14:48:07.149Z,17.30
2017-07-09T14:50:34.596Z,15.10
2017-07-09T14:53:02.034Z,16.30
2017-07-09T14:55:29.491Z,16.33
2017-07-09T14:57:56.920Z,16.10
2017-07-09T15:00:24.362Z,13.17
2017-07-09T15:02:51.810Z,14.70
2017-07-09T15:05:19.245Z,16.57
2017-07-09T15:07:46.691Z,15.37
2017-07-09T15:10:14.125Z,14.70
2017-07-09T15:12:41.567Z,13.83
2017-07-09T15:15:09.003Z,15.03
2017-07-09T15:17:36.450Z,15.07
2017-07-09T15:20:03.878Z,13.97
2017-07-09T15:22:31.330Z,14.40
2017-07-09T15:24:58.765Z,14.20
2017-07-09T15:27:26.194Z,14.73
2017-07-09T15:29:53.643Z,14.40
2017-07-09T15:32:21.070Z,14.53
2017-07-09T15:34:49.281Z,14.83
2017-07-09T15:37:16.725Z,14.60
2017-07-09T15:39:44.173Z,14.23
2017-07-09T15:42:11.606Z,14.07
2017-07-09T15:44:39.098Z,14.33
2017-07-09T15:47:06.529Z,14.20
2017-07-09T15:49:34.750Z,14.40
2017-07-09T15:52:02.184Z,16.70
2017-07-09T15:54:29.618Z,16.53
2017-07-09T15:56:57.074Z,16.63
2017-07-09T15:59:24.510Z,16.03
2017-07-09T16:01:51.956Z,16.90
2017-07-09T16:04:19.410Z,15.63
2017-07-09T16:06:46.853Z,15.80
2017-07-09T16:09:14.290Z,16.80
2017-07-09T16:11:41.736Z,16.13
2017-07-09T16:14:09.172Z,17.53
2017-07-09T16:16:36.601Z,17.37
2017-07-09T16:19:04.040Z,16.33
2017-07-09T16:21:31.473Z,15.70
2017-07-09T16:23:58.916Z,16.20
2017-07-09T16:26:26.356Z,15.33
2017-07-09T16:43:20.022Z,17.40
2017-07-09T16:45:47.489Z,17.13
2017-07-09T16:48:14.954Z,17.47
2017-07-09T16:50:53.371Z,15.80
2017-07-09T16:53:21.600Z,14.77
2017-07-09T16:55:49.061Z,16.07
2017-07-09T16:58:16.526Z,15.40
2017-07-09T17:00:43.986Z,16.77
2017-07-09T17:03:11.438Z,17.00
2017-07-09T17:05:38.902Z,18.90
2017-07-09T17:08:06.361Z,18.00
2017-07-09T17:10:33.825Z,17.03
2017-07-09T17:13:01.291Z,16.37
2017-07-09T17:15:28.762Z,16.50
2017-07-09T17:17:56.986Z,16.33
2017-07-09T17:20:24.463Z,16.20
2017-07-09T17:22:51.917Z,16.97
2017-07-09T17:25:19.376Z,15.30
2017-07-09T17:27:46.834Z,14.20
2017-07-09T17:30:14.300Z,14.60
2017-07-09T17:32:41.758Z,17.73
2017-07-09T17:35:09.235Z,17.70
2017-07-09T17:37:36.706Z,17.50
2017-07-09T17:40:04.932Z,19.43
2017-07-09T17:42:32.390Z,18.53
2017-07-09T17:44:59.857Z,18.80
2017-07-09T17:47:27.319Z,19.17
2017-07-09T17:49:54.790Z,18.10
2017-07-09T17:52:22.317Z,17.10
2017-07-09T17:54:49.782Z,17.50
2017-07-09T17:57:17.242Z,17.70
2017-07-09T17:59:44.694Z,17.40
2017-07-09T18:02:12.204Z,17.80
2017-07-09T18:04:40.442Z,18.90
2017-07-09T18:07:07.919Z,18.13
2017-07-09T18:09:35.390Z,16.93
2017-07-09T18:12:02.849Z,17.53
2017-07-09T18:14:30.322Z,16.00
2017-07-09T18:16:58.557Z,16.70
2017-07-09T18:19:26.019Z,17.60
2017-07-09T18:21:53.469Z,16.93
2017-07-09T18:24:20.936Z,16.37
2017-07-09T18:26:48.386Z,15.73
2017-07-09T18:29:15.861Z,14.73
2017-07-09T18:31:43.319Z,16.13
2017-07-09T18:34:10.791Z,15.37
2017-07-09T18:36:38.251Z,14.00
2017-07-09T18:39:05.759Z,14.07
2017-07-09T18:41:33.219Z,14.27
2017-07-09T18:44:00.676Z,12.20
2017-07-09T18:46:28.138Z,12.80
2017-07-09T18:48:55.596Z,13.27
2017-07-09T18:51:23.067Z,13.20
2017-07-09T18:53:50.530Z,14.07
2017-07-09T18:56:18.068Z,12.73
2017-07-09T18:58:45.510Z,12.73
2017-07-09T19:01:13.032Z,13.80
2017-07-09T19:03:40.486Z,12.90
2017-07-09T19:06:09.569Z,11.20
2017-07-09T19:08:39.684Z,14.83
2017-07-09T19:11:07.402Z,13.83
2017-07-09T19:13:39.604Z,13.47
2017-07-09T19:16:10.826Z,12.63
2017-07-09T19:18:41.931Z,12.70
2017-07-09T19:21:15.907Z,11.63
2017-07-09T19:23:52.402Z,12.20
2017-07-09T19:26:25.522Z,15.30
2017-07-09T19:29:00.584Z,13.80
2017-07-09T19:31:33.458Z,13.67
2017-07-09T19:34:06.248Z,12.23
2017-07-09T19:36:36.302Z,13.70
2017-07-09T19:41:58.782Z,14.00
2017-07-09T19:44:28.783Z,11.60
2017-07-09T19:46:59.926Z,12.50
2017-07-09T19:49:30.629Z,13.37
2017-07-09T19:52:00.572Z,13.13
2017-07-09T19:54:33.378Z,13.20
2017-07-09T19:57:03.474Z,12.30
2017-07-09T19:59:33.388Z,11.97
2017-07-09T20:02:04.912Z,14.40
2017-07-09T20:04:34.721Z,12.60
2017-07-09T20:25:24.653Z,13.63
2017-07-09T20:28:08.799Z,15.63
2017-07-09T20:30:42.913Z,14.13
2017-07-09T20:33:29.281Z,13.73
2017-07-09T20:55:40.305Z,14.80
2017-07-09T21:01:08.783Z,15.50
2017-07-09T21:04:07.587Z,15.50
2017-07-09T21:15:37.493Z,16.53
2017-07-09T21:21:10.138Z,14.70
2017-07-09T21:23:53.181Z,14.10
2017-07-09T21:32:33.394Z,13.93
2017-07-09T21:35:11.257Z,16.17
2017-07-09T21:40:42.245Z,14.00
2017-07-09T21:43:18.097Z,13.63
2017-07-09T21:48:45.744Z,14.17
2017-07-09T21:51:25.137Z,13.33
2017-07-09T21:57:11.432Z,14.40
2017-07-09T22:00:11.427Z,14.10
2017-07-09T22:02:53.877Z,13.97
2017-07-09T22:08:40.194Z,13.23
2017-07-09T22:11:18.709Z,13.70
2017-07-09T22:16:39.006Z,14.83
2017-07-09T22:19:18.849Z,13.17
2017-07-09T22:21:59.398Z,14.30
2017-07-09T22:27:36.015Z,15.00
2017-07-09T22:30:15.235Z,17.50
2017-07-09T22:32:56.702Z,18.53
2017-07-09T22:35:32.060Z,17.40
2017-07-09T22:49:46.579Z,14.70
2017-07-09T22:52:23.558Z,16.93
2017-07-09T22:55:02.102Z,18.13
2017-07-09T23:00:33.328Z,20.43
2017-07-09T23:03:09.631Z,21.33
2017-07-09T23:10:56.110Z,24.00
2017-07-09T23:13:31.084Z,23.67
2017-07-09T23:16:01.202Z,23.50
2017-07-09T23:18:36.346Z,21.70
2017-07-09T23:21:07.584Z,23.80
2017-07-09T23:23:45.010Z,22.37
2017-07-09T23:26:27.688Z,24.13
2017-07-09T23:29:05.623Z,22.07
2017-07-09T23:31:45.949Z,19.30
2017-07-09T23:37:26.635Z,24.07
2017-07-09T23:40:10.092Z,25.17
2017-07-09T23:45:44.739Z,22.20
2017-07-09T23:48:18.229Z,19.63
2017-07-09T23:51:09.521Z,18.27
2017-07-09T23:53:44.985Z,18.03
2017-07-09T23:56:16.933Z,16.17
2017-07-09T23:58:54.453Z,15.53
